CheckWX is a tool to help pilots better visualize weather data.  It is not intended as a substitute for an official pre-flight weather briefing.

22:07:57 UTC

LWSK METAR
Skopje Alexander the Great Airport
Skopje, Macedonia
Current

38 mins ago

LWSK 202130Z 20003KT CAVOK 20/14 Q1020 NOSIG
Observed
Jul-20 @ 21:30 UTC
Wind
  • 200° at 3 KTS
Visibility
10,000+ meters
Flight Rules
VFR
Cloud Levels
  • Clear skies
Temperature
20°C / 68°F
Dewpoint
14°C / 57°F
Humidity
69%
Altimeter
30.12" Hg
Pressure
1019.92 hPa
Previous

1 hour ago

LWSK 202100Z VRB02KT CAVOK 20/14 Q1020 NOSIG
Observed
Jul-20 @ 21:00 UTC
Wind
  • Variable at 2 KTS
Visibility
10,000+ meters
Flight Rules
VFR
Cloud Levels
  • Clear skies
Temperature
20°C / 68°F
Dewpoint
14°C / 57°F
Humidity
69%
Altimeter
30.12" Hg
Pressure
1019.92 hPa
Previous

2 hours ago

LWSK 202030Z 12002KT CAVOK 22/14 Q1019 NOSIG
Observed
Jul-20 @ 20:30 UTC
Wind
  • 120° at 2 KTS
Visibility
10,000+ meters
Flight Rules
VFR
Cloud Levels
  • Clear skies
Temperature
22°C / 72°F
Dewpoint
14°C / 57°F
Humidity
61%
Altimeter
30.09" Hg
Pressure
1018.92 hPa